Time;durP1;ratioP1;P1;durP2;ratioP2;P2;SDS_P1;SDS_P2;PMS_P1;PMS_P2;Temp;Humidity;BMP_temperature;BMP_pressure;BME280_temperature;BME280_humidity;BME280_pressure;Samples;Min_cycle;Max_cycle;Signal;HPM_P1;HPM_P2
2022/04/19 00:01:55;;;;;;;4.97;2.88;;;;;;;;;;5050461;28;20073;-61
2022/04/19 00:04:21;;;;;;;5.57;3.63;;;;;;;;;;5041920;28;20076;-62
2022/04/19 00:06:48;;;;;;;8.40;3.10;;;;;;;;;;5042433;28;20567;-60
2022/04/19 00:09:17;;;;;;;9.02;3.30;;;;;;;;;;5040731;28;20136;-61
2022/04/19 00:11:43;;;;;;;6.90;3.42;;;;;;;;;;5040426;28;20141;-62
2022/04/19 00:14:10;;;;;;;4.72;3.03;;;;;;;;;;5041039;28;20140;-61
2022/04/19 00:16:37;;;;;;;6.80;3.78;;;;;;;;;;5040204;28;20057;-61
2022/04/19 00:19:03;;;;;;;4.70;3.00;;;;;;;;;;5042149;28;20076;-61
2022/04/19 00:21:32;;;;;;;6.30;3.30;;;;;;;;;;5039127;28;20319;-62
2022/04/19 00:23:59;;;;;;;6.50;3.67;;;;;;;;;;5042544;28;20212;-59
2022/04/19 00:26:25;;;;;;;5.40;3.70;;;;;;;;;;5041025;28;20467;-60
2022/04/19 00:28:54;;;;;;;5.65;3.70;;;;;;;;;;5037928;28;20517;-59
2022/04/19 00:31:22;;;;;;;6.82;3.72;;;;;;;;;;5040349;28;20137;-59
2022/04/19 00:33:48;;;;;;;8.30;3.60;;;;;;;;;;5041623;28;20056;-60
2022/04/19 00:36:15;;;;;;;7.93;3.25;;;;;;;;;;5038494;28;20083;-60
2022/04/19 00:38:41;;;;;;;7.03;3.47;;;;;;;;;;5039272;28;20524;-59
2022/04/19 00:41:08;;;;;;;5.18;3.78;;;;;;;;;;5039371;28;20132;-59
2022/04/19 00:43:35;;;;;;;5.05;3.47;;;;;;;;;;5039989;28;20107;-60
2022/04/19 00:46:02;;;;;;;7.45;3.78;;;;;;;;;;5038823;28;20124;-59
2022/04/19 00:48:29;;;;;;;4.90;3.60;;;;;;;;;;5038753;28;20053;-62
2022/04/19 00:50:56;;;;;;;6.20;3.38;;;;;;;;;;5035402;28;20141;-61
2022/04/19 00:53:24;;;;;;;5.57;3.30;;;;;;;;;;5040057;28;20139;-61
2022/04/19 00:55:57;;;;;;;9.38;3.60;;;;;;;;;;5039831;28;20044;-61
2022/04/19 00:58:24;;;;;;;6.05;2.70;;;;;;;;;;5039714;28;20145;-60
2022/04/19 01:00:50;;;;;;;6.47;3.47;;;;;;;;;;5040081;28;20461;-61
2022/04/19 01:03:17;;;;;;;8.70;3.15;;;;;;;;;;5037712;28;20076;-60
2022/04/19 01:05:45;;;;;;;10.93;3.50;;;;;;;;;;5043633;28;20053;-60
2022/04/19 01:08:12;;;;;;;5.63;3.70;;;;;;;;;;5041645;28;20504;-60
2022/04/19 01:10:38;;;;;;;9.00;4.18;;;;;;;;;;5043325;28;20140;-60
2022/04/19 01:13:18;;;;;;;8.27;3.70;;;;;;;;;;5040959;28;20107;-60
2022/04/19 01:15:48;;;;;;;6.65;3.55;;;;;;;;;;5038999;28;20055;-60
2022/04/19 01:18:23;;;;;;;6.68;3.92;;;;;;;;;;5038848;28;20049;-60
2022/04/19 01:20:50;;;;;;;13.63;3.92;;;;;;;;;;5039707;28;20052;-59
2022/04/19 01:23:20;;;;;;;6.13;4.07;;;;;;;;;;5041753;28;20045;-60
2022/04/19 01:25:46;;;;;;;9.50;3.90;;;;;;;;;;5038737;28;20049;-60
2022/04/19 01:28:13;;;;;;;9.20;4.05;;;;;;;;;;5041528;28;20081;-60
2022/04/19 01:30:44;;;;;;;9.15;4.05;;;;;;;;;;5036702;28;20045;-60
2022/04/19 01:33:10;;;;;;;11.40;3.70;;;;;;;;;;5039471;28;20140;-60
2022/04/19 01:35:37;;;;;;;6.47;3.58;;;;;;;;;;5037202;28;20049;-59
2022/04/19 01:38:04;;;;;;;5.43;3.45;;;;;;;;;;5039423;28;20140;-60
2022/04/19 01:40:31;;;;;;;8.52;3.75;;;;;;;;;;5037550;28;20080;-59
2022/04/19 01:42:59;;;;;;;7.80;3.83;;;;;;;;;;5033234;28;20140;-60
2022/04/19 01:45:27;;;;;;;8.45;3.67;;;;;;;;;;5036819;28;20147;-60
2022/04/19 01:47:54;;;;;;;5.00;3.50;;;;;;;;;;5042105;28;20083;-59
2022/04/19 01:50:21;;;;;;;5.32;3.33;;;;;;;;;;5039546;28;20389;-60
2022/04/19 01:52:49;;;;;;;7.35;4.05;;;;;;;;;;5029777;28;20141;-60
2022/04/19 01:55:16;;;;;;;6.35;3.53;;;;;;;;;;5020894;28;20092;-60
2022/04/19 01:57:43;;;;;;;7.70;3.80;;;;;;;;;;5018986;28;20545;-59
2022/04/19 02:00:11;;;;;;;5.55;3.50;;;;;;;;;;5019573;28;20128;-60
2022/04/19 02:02:40;;;;;;;6.35;3.53;;;;;;;;;;5019777;28;20089;-60
2022/04/19 02:05:07;;;;;;;14.63;4.20;;;;;;;;;;5021610;28;20631;-59
2022/04/19 02:07:38;;;;;;;6.20;3.75;;;;;;;;;;5020567;28;20164;-60
2022/04/19 02:10:06;;;;;;;12.18;4.30;;;;;;;;;;5017938;28;20078;-59
2022/04/19 02:12:33;;;;;;;5.65;3.50;;;;;;;;;;5019944;28;20699;-59
2022/04/19 02:15:07;;;;;;;5.50;3.90;;;;;;;;;;5017191;28;20084;-59
2022/04/19 02:17:33;;;;;;;9.50;4.07;;;;;;;;;;5020647;28;20081;-60
2022/04/19 02:20:04;;;;;;;8.13;4.13;;;;;;;;;;5018242;28;20373;-59
2022/04/19 02:22:34;;;;;;;6.13;3.72;;;;;;;;;;5015910;28;20156;-59
2022/04/19 02:25:00;;;;;;;5.82;3.53;;;;;;;;;;5020408;28;20452;-60
2022/04/19 02:27:28;;;;;;;6.80;4.13;;;;;;;;;;5019582;28;20049;-59
2022/04/19 02:30:04;;;;;;;8.52;3.88;;;;;;;;;;5022632;28;20099;-60
2022/04/19 02:32:32;;;;;;;8.27;4.57;;;;;;;;;;5025151;28;20049;-59
2022/04/19 02:34:59;;;;;;;;;;;;;;;;;;5020724;28;20050;-59
2022/04/19 02:37:32;;;;;;;6.93;4.10;;;;;;;;;;5023183;28;20026;-60
2022/04/19 02:39:59;;;;;;;5.82;3.67;;;;;;;;;;5023667;28;20599;-59
2022/04/19 02:42:25;;;;;;;5.38;3.90;;;;;;;;;;5022904;28;20421;-60
2022/04/19 02:44:55;;;;;;;7.95;3.67;;;;;;;;;;5025070;28;20096;-60
2022/04/19 02:47:21;;;;;;;9.43;4.60;;;;;;;;;;5023147;28;20136;-60
2022/04/19 02:49:49;;;;;;;6.18;4.00;;;;;;;;;;5023017;28;20175;-59
2022/04/19 02:52:17;;;;;;;7.38;4.47;;;;;;;;;;5025994;28;20085;-59
2022/04/19 02:54:44;;;;;;;10.40;4.30;;;;;;;;;;5038522;28;20057;-59
2022/04/19 02:57:10;;;;;;;7.47;4.47;;;;;;;;;;5043755;28;20724;-60
2022/04/19 02:59:43;;;;;;;6.35;3.83;;;;;;;;;;5039342;28;20123;-60
2022/04/19 03:02:10;;;;;;;7.45;4.28;;;;;;;;;;5043456;28;20136;-59
2022/04/19 03:04:37;;;;;;;7.28;3.97;;;;;;;;;;5047187;28;20057;-59
2022/04/19 03:07:14;;;;;;;8.77;4.65;;;;;;;;;;5027298;28;20573;-60
2022/04/19 03:09:41;;;;;;;9.85;4.75;;;;;;;;;;5040260;28;20065;-59
2022/04/19 03:12:10;;;;;;;8.55;4.57;;;;;;;;;;5042588;28;20167;-59
2022/04/19 03:14:43;;;;;;;6.88;4.50;;;;;;;;;;5044013;28;20564;-59
2022/04/19 03:17:10;;;;;;;8.38;4.10;;;;;;;;;;5041381;28;20140;-60
2022/04/19 03:19:36;;;;;;;7.40;4.20;;;;;;;;;;5040155;28;20474;-59
2022/04/19 03:22:05;;;;;;;7.45;4.03;;;;;;;;;;5047316;28;20131;-59
2022/04/19 03:30:02;;;;;;;6.18;4.20;;;;;;;;;;5040789;28;20483;-60
2022/04/19 03:32:38;;;;;;;8.00;4.40;;;;;;;;;;5037868;28;20103;-59
2022/04/19 03:35:04;;;;;;;5.45;4.18;;;;;;;;;;5041502;28;20123;-59
2022/04/19 03:37:31;;;;;;;10.02;4.30;;;;;;;;;;5043295;28;20151;-60
2022/04/19 03:40:06;;;;;;;5.85;3.67;;;;;;;;;;5038073;28;20131;-60
2022/04/19 03:42:32;;;;;;;;;;;;;;;;;;5042613;28;20076;-61
2022/04/19 03:44:58;;;;;;;9.38;3.45;;;;;;;;;;5042951;28;20011;-59
2022/04/19 03:47:34;;;;;;;6.80;4.15;;;;;;;;;;5041641;28;20140;-60
2022/04/19 03:50:00;;;;;;;8.07;3.85;;;;;;;;;;5037073;28;20084;-60
2022/04/19 03:52:27;;;;;;;6.45;3.88;;;;;;;;;;5040403;28;20096;-59
2022/04/19 03:54:54;;;;;;;7.25;4.15;;;;;;;;;;5022476;28;20042;-59
2022/04/19 03:57:20;;;;;;;10.10;4.00;;;;;;;;;;5022945;28;20794;-59
2022/04/19 03:59:47;;;;;;;10.50;5.07;;;;;;;;;;5021128;28;20100;-59
2022/04/19 04:02:15;;;;;;;7.53;4.65;;;;;;;;;;5023770;28;20057;-60
2022/04/19 04:04:42;;;;;;;7.00;4.30;;;;;;;;;;5019673;28;20398;-59
2022/04/19 04:07:09;;;;;;;7.83;4.90;;;;;;;;;;5017601;28;20056;-60
2022/04/19 04:09:35;;;;;;;7.15;4.07;;;;;;;;;;5021427;28;20132;-59
2022/04/19 04:12:03;;;;;;;6.53;4.28;;;;;;;;;;5020258;28;20085;-59
2022/04/19 04:14:29;;;;;;;;;;;;;;;;;;5019758;28;20132;-59
2022/04/19 04:16:59;;;;;;;7.13;4.00;;;;;;;;;;5020691;28;19981;-59
2022/04/19 04:19:26;;;;;;;12.23;4.47;;;;;;;;;;5024943;28;20192;-60
2022/04/19 04:21:52;;;;;;;7.90;4.22;;;;;;;;;;5020640;28;20136;-59
2022/04/19 04:24:19;;;;;;;7.85;3.08;;;;;;;;;;5022246;28;20533;-59
2022/04/19 04:26:46;;;;;;;8.67;4.03;;;;;;;;;;5022214;28;20069;-59
2022/04/19 04:29:12;;;;;;;9.55;3.95;;;;;;;;;;5018225;28;20172;-59
2022/04/19 04:31:43;;;;;;;5.72;3.72;;;;;;;;;;5022764;28;20456;-60
2022/04/19 04:34:09;;;;;;;12.05;4.47;;;;;;;;;;5023340;28;20561;-60
2022/04/19 04:36:35;;;;;;;7.07;3.95;;;;;;;;;;5020507;28;20049;-60
2022/04/19 04:39:02;;;;;;;6.18;3.53;;;;;;;;;;5019280;28;20049;-60
2022/04/19 04:41:29;;;;;;;13.85;4.38;;;;;;;;;;5021716;28;20077;-60
2022/04/19 04:43:55;;;;;;;6.60;3.65;;;;;;;;;;5022373;28;20144;-60
2022/04/19 04:51:54;;;;;;;7.15;3.88;;;;;;;;;;5022275;28;20509;-60
2022/04/19 04:54:21;;;;;;;7.70;3.55;;;;;;;;;;5037561;28;20638;-60
2022/04/19 04:56:47;;;;;;;6.97;3.80;;;;;;;;;;5040502;28;20132;-60
2022/04/19 04:59:14;;;;;;;7.25;3.42;;;;;;;;;;5040893;28;20084;-60
2022/04/19 05:01:40;;;;;;;6.40;3.83;;;;;;;;;;5041434;28;20083;-60
2022/04/19 05:04:07;;;;;;;7.78;3.65;;;;;;;;;;5040076;28;20057;-60
2022/04/19 05:06:35;;;;;;;5.93;3.88;;;;;;;;;;5040732;28;20116;-60
2022/04/19 05:09:02;;;;;;;8.70;3.70;;;;;;;;;;5040651;28;20053;-60
2022/04/19 05:11:31;;;;;;;8.45;3.95;;;;;;;;;;5041488;28;20595;-60
2022/04/19 05:13:57;;;;;;;6.25;3.22;;;;;;;;;;5037975;28;20499;-59
2022/04/19 05:16:28;;;;;;;9.23;3.45;;;;;;;;;;5042292;28;20052;-60
2022/04/19 05:18:54;;;;;;;6.28;3.67;;;;;;;;;;5040166;28;20053;-60
2022/04/19 05:21:25;;;;;;;6.10;3.50;;;;;;;;;;5042908;28;20080;-60
2022/04/19 05:23:51;;;;;;;7.32;3.60;;;;;;;;;;5039698;28;20550;-60
2022/04/19 05:26:18;;;;;;;7.63;3.65;;;;;;;;;;5041936;28;20144;-60
2022/04/19 05:28:44;;;;;;;6.22;3.67;;;;;;;;;;5037378;28;20164;-60
2022/04/19 05:31:11;;;;;;;6.43;3.38;;;;;;;;;;5036834;28;20076;-60
2022/04/19 05:33:37;;;;;;;5.32;3.58;;;;;;;;;;5039956;28;20570;-60
2022/04/19 05:36:12;;;;;;;12.63;4.55;;;;;;;;;;5041186;28;20073;-60
2022/04/19 05:38:38;;;;;;;;;;;;;;;;;;5041906;28;20516;-60
2022/04/19 05:41:07;;;;;;;6.32;4.05;;;;;;;;;;5033910;28;19960;-60
2022/04/19 05:43:41;;;;;;;8.55;4.93;;;;;;;;;;5038316;28;20144;-60
2022/04/19 05:46:07;;;;;;;6.50;4.27;;;;;;;;;;5038378;28;20053;-60
2022/04/19 05:48:33;;;;;;;6.32;4.13;;;;;;;;;;5038934;28;20088;-60
2022/04/19 05:51:00;;;;;;;4.90;3.75;;;;;;;;;;5042709;28;20107;-60
2022/04/19 05:53:27;;;;;;;6.53;4.35;;;;;;;;;;5040620;28;20144;-60
2022/04/19 05:55:54;;;;;;;6.45;4.30;;;;;;;;;;5043088;28;20500;-60
2022/04/19 05:58:21;;;;;;;9.70;4.57;;;;;;;;;;5040463;28;20052;-60
2022/04/19 06:00:48;;;;;;;9.68;4.68;;;;;;;;;;5038459;28;20452;-60
2022/04/19 06:06:00;;;;;;;7.22;3.80;;;;;;;;;;5036158;28;20084;-61
2022/04/19 06:08:26;;;;;;;8.63;4.30;;;;;;;;;;5041846;28;20081;-60
2022/04/19 06:10:53;;;;;;;11.63;4.18;;;;;;;;;;5034513;28;20132;-61
2022/04/19 06:13:26;;;;;;;9.98;4.93;;;;;;;;;;5032945;28;20091;-61
2022/04/19 06:15:52;;;;;;;11.00;5.00;;;;;;;;;;5042407;28;20049;-61
2022/04/19 06:18:19;;;;;;;11.68;5.50;;;;;;;;;;5039422;28;20172;-61
2022/04/19 06:20:54;;;;;;;13.85;5.88;;;;;;;;;;5041257;28;20124;-61
2022/04/19 06:23:20;;;;;;;10.30;5.53;;;;;;;;;;5037577;28;20140;-61
2022/04/19 06:25:47;;;;;;;9.32;5.57;;;;;;;;;;5043315;28;20171;-61
2022/04/19 06:28:16;;;;;;;9.70;4.95;;;;;;;;;;5037708;28;20497;-61
2022/04/19 06:30:42;;;;;;;12.23;5.20;;;;;;;;;;5040856;28;20080;-61
2022/04/19 06:33:08;;;;;;;10.20;5.07;;;;;;;;;;5036431;28;20045;-62
2022/04/19 06:35:35;;;;;;;10.15;4.55;;;;;;;;;;5040269;28;20137;-61
2022/04/19 06:38:02;;;;;;;12.20;5.85;;;;;;;;;;5040250;28;20176;-62
2022/04/19 06:40:29;;;;;;;9.50;4.90;;;;;;;;;;5037024;28;20131;-62
2022/04/19 06:43:02;;;;;;;9.45;4.75;;;;;;;;;;5038687;28;20084;-62
2022/04/19 06:45:28;;;;;;;9.03;4.43;;;;;;;;;;5039522;28;20084;-62
2022/04/19 06:47:58;;;;;;;10.13;4.85;;;;;;;;;;5041511;28;20304;-62
2022/04/19 06:50:26;;;;;;;7.72;3.90;;;;;;;;;;5036102;28;20085;-62
2022/04/19 06:52:52;;;;;;;7.53;4.35;;;;;;;;;;5039882;28;20172;-63
2022/04/19 06:55:20;;;;;;;11.00;4.30;;;;;;;;;;5036049;28;20165;-63
2022/04/19 06:57:47;;;;;;;12.75;5.05;;;;;;;;;;5033248;28;20076;-63
2022/04/19 07:00:14;;;;;;;9.40;4.30;;;;;;;;;;5028265;28;20152;-63
2022/04/19 07:02:42;;;;;;;11.20;5.00;;;;;;;;;;5038326;28;20132;-63
2022/04/19 07:05:10;;;;;;;12.60;5.18;;;;;;;;;;5039523;28;20677;-63
2022/04/19 07:07:38;;;;;;;8.70;4.40;;;;;;;;;;5036501;28;20803;-63
2022/04/19 07:10:06;;;;;;;11.02;4.90;;;;;;;;;;5039328;28;20080;-64
2022/04/19 07:12:33;;;;;;;9.93;4.93;;;;;;;;;;5036882;28;20045;-64
2022/04/19 07:14:59;;;;;;;9.18;5.07;;;;;;;;;;5042723;28;20140;-64
2022/04/19 07:17:27;;;;;;;9.82;5.28;;;;;;;;;;5038047;28;20527;-64
2022/04/19 07:28:23;;;;;;;11.52;5.72;;;;;;;;;;5042531;28;20053;-64
2022/04/19 07:30:50;;;;;;;8.13;4.50;;;;;;;;;;5040641;28;20134;-65
2022/04/19 07:33:17;;;;;;;10.73;4.60;;;;;;;;;;5037404;28;20140;-65
2022/04/19 07:35:44;;;;;;;7.43;4.70;;;;;;;;;;5040559;28;20164;-65
2022/04/19 07:38:11;;;;;;;8.60;4.33;;;;;;;;;;5039185;28;20640;-65
2022/04/19 07:40:38;;;;;;;9.52;4.38;;;;;;;;;;5040520;28;20164;-65
2022/04/19 07:43:05;;;;;;;6.85;3.63;;;;;;;;;;5041586;28;20180;-65
2022/04/19 07:45:32;;;;;;;5.43;3.45;;;;;;;;;;5039469;28;20057;-65
2022/04/19 07:47:58;;;;;;;5.80;3.22;;;;;;;;;;5036559;28;20073;-65
2022/04/19 07:50:28;;;;;;;6.53;3.47;;;;;;;;;;5040934;28;20061;-66
2022/04/19 07:52:55;;;;;;;8.35;3.92;;;;;;;;;;5034260;28;20568;-66
2022/04/19 07:55:23;;;;;;;6.18;3.63;;;;;;;;;;5021665;28;20092;-66
2022/04/19 07:57:50;;;;;;;6.20;3.60;;;;;;;;;;5021473;28;20107;-66
2022/04/19 08:00:17;;;;;;;8.02;3.25;;;;;;;;;;5022606;28;20169;-66
2022/04/19 08:02:43;;;;;;;5.28;3.30;;;;;;;;;;5022892;28;20484;-67
2022/04/19 08:05:10;;;;;;;6.55;3.30;;;;;;;;;;5021898;28;20126;-67
2022/04/19 08:07:37;;;;;;;9.27;2.97;;;;;;;;;;5020157;28;20137;-67
2022/04/19 08:10:04;;;;;;;5.53;3.22;;;;;;;;;;5021201;28;20144;-67
2022/04/19 08:12:36;;;;;;;6.40;3.08;;;;;;;;;;5020765;28;20081;-67
2022/04/19 08:15:07;;;;;;;5.18;3.15;;;;;;;;;;5020217;28;20084;-67
2022/04/19 08:17:34;;;;;;;6.75;3.08;;;;;;;;;;5018350;28;20572;-67
2022/04/19 08:20:01;;;;;;;10.57;3.23;;;;;;;;;;5027114;28;20057;-67
2022/04/19 08:22:28;;;;;;;6.20;3.22;;;;;;;;;;5017167;28;20104;-67
2022/04/19 08:24:55;;;;;;;4.78;3.03;;;;;;;;;;5013969;28;20100;-68
2022/04/19 08:27:21;;;;;;;9.18;3.47;;;;;;;;;;5019591;28;20081;-67
2022/04/19 08:29:48;;;;;;;3.72;2.83;;;;;;;;;;5020006;28;20573;-68
2022/04/19 08:32:14;;;;;;;4.15;2.80;;;;;;;;;;5018714;28;20135;-68
2022/04/19 08:34:42;;;;;;;4.10;3.05;;;;;;;;;;5021662;28;20077;-68
2022/04/19 08:37:09;;;;;;;6.43;3.08;;;;;;;;;;5023386;28;20136;-68
2022/04/19 08:39:36;;;;;;;4.65;3.22;;;;;;;;;;5022242;28;20091;-68
2022/04/19 08:42:09;;;;;;;4.57;3.13;;;;;;;;;;5020365;28;20491;-68
2022/04/19 08:44:36;;;;;;;6.20;3.30;;;;;;;;;;5018449;28;20148;-68
2022/04/19 08:47:08;;;;;;;6.32;3.20;;;;;;;;;;5022443;28;20140;-68
2022/04/19 08:49:40;;;;;;;6.80;3.47;;;;;;;;;;5021390;28;20084;-68
2022/04/19 08:52:07;;;;;;;3.40;2.85;;;;;;;;;;5019554;28;20107;-68
2022/04/19 08:57:29;;;;;;;4.72;2.80;;;;;;;;;;5039131;28;20076;-68
2022/04/19 08:59:56;;;;;;;7.55;3.15;;;;;;;;;;5041109;28;20140;-68
2022/04/19 09:02:24;;;;;;;7.97;3.28;;;;;;;;;;5040909;28;20144;-69
2022/04/19 09:04:50;;;;;;;;;;;;;;;;;;5038023;28;20136;-69
2022/04/19 09:07:17;;;;;;;4.18;2.70;;;;;;;;;;5040411;28;19927;-69
2022/04/19 09:09:56;;;;;;;5.82;3.00;;;;;;;;;;5038640;28;20132;-69
2022/04/19 09:12:23;;;;;;;4.75;3.00;;;;;;;;;;5041587;28;20136;-69
2022/04/19 09:14:56;;;;;;;4.10;2.65;;;;;;;;;;5038086;28;20447;-69
2022/04/19 09:17:31;;;;;;;3.83;2.60;;;;;;;;;;5039624;28;20140;-69
2022/04/19 09:20:11;;;;;;;3.80;2.55;;;;;;;;;;5036865;28;20080;-69
2022/04/19 09:22:37;;;;;;;4.38;2.60;;;;;;;;;;5037513;28;20045;-69
2022/04/19 09:25:14;;;;;;;3.75;2.53;;;;;;;;;;5037695;28;20141;-69
2022/04/19 09:27:44;;;;;;;3.90;2.50;;;;;;;;;;5042284;28;20076;-69
2022/04/19 09:30:27;;;;;;;5.47;2.40;;;;;;;;;;5038518;28;20140;-69
2022/04/19 09:33:08;;;;;;;5.70;2.50;;;;;;;;;;5038719;28;20091;-69
2022/04/19 09:35:36;;;;;;;5.60;2.60;;;;;;;;;;5039917;28;20132;-69
2022/04/19 09:38:04;;;;;;;5.15;2.80;;;;;;;;;;5041127;28;20049;-69
2022/04/19 09:40:35;;;;;;;3.08;2.47;;;;;;;;;;5039109;28;20144;-69
2022/04/19 09:43:05;;;;;;;4.78;2.30;;;;;;;;;;5028972;28;20127;-69
2022/04/19 09:45:43;;;;;;;4.32;2.35;;;;;;;;;;5039388;28;20051;-70
2022/04/19 09:48:17;;;;;;;3.50;2.30;;;;;;;;;;5039473;28;20045;-69
2022/04/19 09:50:47;;;;;;;5.90;2.47;;;;;;;;;;5042250;28;20144;-69
2022/04/19 09:53:18;;;;;;;3.25;2.38;;;;;;;;;;5031050;28;20050;-69
2022/04/19 09:55:45;;;;;;;2.95;2.25;;;;;;;;;;5015217;28;20094;-70
2022/04/19 09:58:13;;;;;;;4.93;2.55;;;;;;;;;;5022861;28;20141;-69
2022/04/19 10:00:40;;;;;;;5.55;2.70;;;;;;;;;;5022947;28;20084;-69
2022/04/19 10:08:44;;;;;;;5.28;2.50;;;;;;;;;;5019220;28;20072;-70
2022/04/19 10:11:10;;;;;;;3.53;2.42;;;;;;;;;;5017849;28;20085;-69
2022/04/19 10:13:38;;;;;;;5.83;2.30;;;;;;;;;;5019488;28;20057;-70
2022/04/19 10:16:08;;;;;;;3.05;2.17;;;;;;;;;;5017988;28;20391;-70
2022/04/19 10:18:44;;;;;;;3.65;2.40;;;;;;;;;;5018850;28;20077;-70
2022/04/19 10:21:22;;;;;;;6.70;2.80;;;;;;;;;;5019668;28;20549;-70
2022/04/19 10:24:11;;;;;;;5.10;2.80;;;;;;;;;;5018558;28;20082;-70
2022/04/19 10:26:43;;;;;;;3.72;2.08;;;;;;;;;;5020112;28;20151;-70
2022/04/19 10:29:22;;;;;;;3.45;2.30;;;;;;;;;;5015944;28;20132;-70
2022/04/19 10:32:02;;;;;;;3.63;2.22;;;;;;;;;;5017457;28;20064;-70
2022/04/19 10:34:39;;;;;;;3.53;1.88;;;;;;;;;;5019593;28;20257;-70
2022/04/19 10:37:12;;;;;;;4.53;2.20;;;;;;;;;;5016875;28;20050;-70
2022/04/19 10:39:46;;;;;;;3.10;2.08;;;;;;;;;;5016564;28;20566;-71
2022/04/19 10:42:32;;;;;;;3.33;2.10;;;;;;;;;;5020634;28;20140;-71
2022/04/19 10:45:11;;;;;;;3.00;1.90;;;;;;;;;;5017088;28;20140;-70
2022/04/19 10:47:57;;;;;;;2.95;1.70;;;;;;;;;;5019754;28;20053;-70
2022/04/19 10:50:39;;;;;;;7.53;2.10;;;;;;;;;;5020728;28;20564;-70
2022/04/19 10:53:07;;;;;;;3.75;2.30;;;;;;;;;;5027477;28;20060;-70
2022/04/19 10:55:35;;;;;;;3.22;1.92;;;;;;;;;;5039622;28;20133;-71
2022/04/19 11:01:26;;;;;;;4.88;2.30;;;;;;;;;;5026360;28;20089;-70
2022/04/19 11:03:52;;;;;;;3.42;2.05;;;;;;;;;;5042740;28;20041;-71
2022/04/19 11:06:32;;;;;;;3.65;2.20;;;;;;;;;;5022311;28;20136;-71
2022/04/19 11:09:28;;;;;;;3.80;1.98;;;;;;;;;;5029858;28;20076;-70
2022/04/19 11:12:08;;;;;;;4.70;1.90;;;;;;;;;;5039570;28;20136;-71
2022/04/19 11:14:36;;;;;;;4.15;2.10;;;;;;;;;;5043170;28;20154;-70
2022/04/19 11:17:17;;;;;;;4.82;1.83;;;;;;;;;;5024585;28;20223;-71
2022/04/19 11:19:51;;;;;;;3.25;1.92;;;;;;;;;;5039189;28;20128;-71
2022/04/19 11:22:29;;;;;;;3.13;2.03;;;;;;;;;;5041409;28;20080;-71
2022/04/19 11:25:14;;;;;;;3.92;1.83;;;;;;;;;;5042925;28;20099;-71
2022/04/19 11:27:52;;;;;;;5.47;2.20;;;;;;;;;;5038993;28;20488;-71
2022/04/19 11:30:19;;;;;;;3.65;2.28;;;;;;;;;;5044346;28;20041;-71
2022/04/19 11:32:49;;;;;;;5.53;2.17;;;;;;;;;;5039884;28;20128;-71
2022/04/19 11:35:16;;;;;;;3.67;2.08;;;;;;;;;;5041422;28;20137;-72
2022/04/19 11:37:43;;;;;;;3.35;2.05;;;;;;;;;;5041538;28;20049;-71
2022/04/19 11:48:45;;;;;;;2.40;1.77;;;;;;;;;;5046944;28;20108;-72
2022/04/19 11:51:14;;;;;;;3.03;2.13;;;;;;;;;;5036413;28;20144;-71
2022/04/19 11:53:41;;;;;;;4.43;1.80;;;;;;;;;;5044121;28;20089;-71
2022/04/19 11:56:08;;;;;;;2.50;1.55;;;;;;;;;;5041761;28;20687;-71
2022/04/19 11:58:36;;;;;;;3.10;2.08;;;;;;;;;;5039466;28;20491;-71
2022/04/19 12:01:05;;;;;;;6.20;2.25;;;;;;;;;;5035111;28;20045;-70
2022/04/19 12:03:32;;;;;;;2.60;1.73;;;;;;;;;;5036179;28;20053;-70
2022/04/19 12:06:05;;;;;;;3.30;1.95;;;;;;;;;;5037292;28;20053;-71
2022/04/19 12:08:37;;;;;;;2.88;1.98;;;;;;;;;;5036284;28;20072;-70
2022/04/19 12:11:16;;;;;;;3.60;2.00;;;;;;;;;;5042432;28;20110;-71
2022/04/19 12:13:43;;;;;;;3.85;2.20;;;;;;;;;;5042798;28;20044;-71
2022/04/19 12:16:29;;;;;;;5.40;2.30;;;;;;;;;;5042813;28;20056;-71
2022/04/19 12:19:00;;;;;;;4.47;2.17;;;;;;;;;;5036988;28;20137;-71
2022/04/19 12:21:40;;;;;;;4.70;2.15;;;;;;;;;;5035913;28;20049;-70
2022/04/19 12:24:19;;;;;;;6.13;2.00;;;;;;;;;;5038682;28;20099;-71
2022/04/19 12:27:06;;;;;;;3.42;1.90;;;;;;;;;;5039916;28;20106;-70
2022/04/19 12:29:33;;;;;;;4.10;2.47;;;;;;;;;;5042574;28;20099;-71
2022/04/19 12:32:00;;;;;;;;;;;;;;;;;;5043922;28;20095;-71
2022/04/19 12:34:33;;;;;;;6.78;2.40;;;;;;;;;;5038076;28;20761;-71
2022/04/19 12:37:12;;;;;;;7.82;2.40;;;;;;;;;;5039592;28;20080;-70
2022/04/19 12:39:39;;;;;;;3.63;2.20;;;;;;;;;;5039186;28;20124;-70
2022/04/19 12:42:09;;;;;;;3.75;2.22;;;;;;;;;;5035621;28;20153;-71
2022/04/19 12:44:36;;;;;;;6.00;2.35;;;;;;;;;;5037971;28;20102;-70
2022/04/19 12:47:03;;;;;;;;;;;;;;;;;;5038323;28;20153;-70
2022/04/19 12:49:31;;;;;;;4.40;2.05;;;;;;;;;;5035871;28;19958;-70
2022/04/19 12:51:58;;;;;;;;;;;;;;;;;;5036260;28;20072;-71
2022/04/19 12:54:26;;;;;;;6.13;2.00;;;;;;;;;;5021454;28;19929;-70
2022/04/19 12:56:56;;;;;;;5.43;2.30;;;;;;;;;;5018676;28;20048;-70
2022/04/19 12:59:22;;;;;;;4.30;2.47;;;;;;;;;;5014616;28;20104;-70
2022/04/19 13:01:49;;;;;;;7.15;2.45;;;;;;;;;;5019687;28;20045;-71
2022/04/19 13:04:15;;;;;;;2.90;2.10;;;;;;;;;;5019337;28;20045;-70
2022/04/19 13:12:19;;;;;;;4.03;2.38;;;;;;;;;;5017331;28;20143;-70
2022/04/19 13:14:53;;;;;;;3.40;2.45;;;;;;;;;;5021015;28;20132;-70
2022/04/19 13:17:25;;;;;;;5.43;2.17;;;;;;;;;;5018217;28;20073;-70
2022/04/19 13:19:51;;;;;;;2.75;2.00;;;;;;;;;;5021696;28;20148;-70
2022/04/19 13:22:19;;;;;;;5.10;2.33;;;;;;;;;;5019887;28;20049;-70
2022/04/19 13:24:45;;;;;;;3.05;2.22;;;;;;;;;;5004230;28;20132;-70
2022/04/19 13:27:12;;;;;;;4.57;2.50;;;;;;;;;;5019690;28;20056;-70
2022/04/19 13:29:42;;;;;;;3.80;2.20;;;;;;;;;;5022129;28;20050;-70
2022/04/19 13:32:09;;;;;;;3.05;2.00;;;;;;;;;;5021690;28;20140;-70
2022/04/19 13:34:36;;;;;;;4.03;2.17;;;;;;;;;;5020658;28;20136;-70
2022/04/19 13:37:09;;;;;;;2.50;2.15;;;;;;;;;;5017545;28;20104;-70
2022/04/19 13:39:35;;;;;;;3.35;2.20;;;;;;;;;;5017746;28;20138;-70
2022/04/19 13:42:02;;;;;;;4.70;2.05;;;;;;;;;;5016008;28;20049;-70
2022/04/19 13:44:29;;;;;;;3.80;2.33;;;;;;;;;;5021306;28;20128;-70
2022/04/19 13:46:59;;;;;;;5.03;2.20;;;;;;;;;;5020377;28;20137;-70
2022/04/19 13:49:32;;;;;;;3.30;1.88;;;;;;;;;;5017821;28;20060;-70
2022/04/19 13:51:59;;;;;;;2.95;2.05;;;;;;;;;;5018582;28;20552;-69
2022/04/19 13:54:26;;;;;;;5.07;2.20;;;;;;;;;;5032493;28;20061;-70
2022/04/19 13:57:01;;;;;;;5.28;2.33;;;;;;;;;;5037404;28;20103;-69
2022/04/19 13:59:29;;;;;;;3.17;2.25;;;;;;;;;;5037567;28;20052;-70
2022/04/19 14:01:56;;;;;;;5.00;2.10;;;;;;;;;;5035519;28;20615;-70
2022/04/19 14:04:22;;;;;;;5.57;3.10;;;;;;;;;;5040011;28;20056;-70
2022/04/19 14:06:56;;;;;;;3.60;1.85;;;;;;;;;;5039158;28;20182;-70
2022/04/19 14:09:22;;;;;;;6.78;2.38;;;;;;;;;;5034545;28;20177;-70
2022/04/19 14:11:48;;;;;;;3.65;2.10;;;;;;;;;;5041380;28;20045;-70
2022/04/19 14:14:15;;;;;;;4.03;2.03;;;;;;;;;;5040064;28;20092;-70
2022/04/19 14:16:41;;;;;;;3.40;2.35;;;;;;;;;;5039350;28;20128;-70
2022/04/19 14:19:08;;;;;;;4.30;2.00;;;;;;;;;;5041606;28;20148;-70
2022/04/19 14:21:41;;;;;;;7.85;2.30;;;;;;;;;;5038051;28;20072;-69
2022/04/19 14:24:09;;;;;;;3.17;2.13;;;;;;;;;;5041835;28;20099;-69
2022/04/19 14:26:35;;;;;;;4.55;2.17;;;;;;;;;;5041228;28;20135;-69
2022/04/19 14:34:35;;;;;;;5.10;2.10;;;;;;;;;;5041724;28;20072;-70
2022/04/19 14:37:02;;;;;;;6.00;2.45;;;;;;;;;;5041854;28;20049;-69
2022/04/19 14:39:30;;;;;;;4.97;2.45;;;;;;;;;;5035913;28;20144;-69
2022/04/19 14:41:58;;;;;;;6.47;2.70;;;;;;;;;;5041081;28;20103;-69
2022/04/19 14:44:24;;;;;;;4.97;2.58;;;;;;;;;;5045155;28;20500;-69
2022/04/19 14:46:54;;;;;;;6.60;3.00;;;;;;;;;;5046105;28;20412;-69
2022/04/19 14:49:21;;;;;;;6.35;2.63;;;;;;;;;;5043325;28;20053;-69
2022/04/19 14:54:32;;;;;;;7.47;2.60;;;;;;;;;;5039285;28;20149;-69
2022/04/19 14:56:58;;;;;;;8.10;2.72;;;;;;;;;;5039873;28;20076;-69
2022/04/19 14:59:25;;;;;;;4.55;1.90;;;;;;;;;;5041424;28;20045;-69
2022/04/19 15:01:51;;;;;;;5.35;2.60;;;;;;;;;;5042603;28;20144;-69
2022/04/19 15:04:18;;;;;;;6.45;2.38;;;;;;;;;;5040584;28;20045;-69
2022/04/19 15:06:46;;;;;;;3.38;1.98;;;;;;;;;;5041011;28;20057;-69
2022/04/19 15:09:13;;;;;;;3.53;2.25;;;;;;;;;;5041765;28;20055;-69
2022/04/19 15:11:39;;;;;;;4.65;1.95;;;;;;;;;;5039690;28;20501;-69
2022/04/19 15:14:06;;;;;;;4.60;2.38;;;;;;;;;;5039137;28;20045;-69
2022/04/19 15:16:33;;;;;;;3.42;2.22;;;;;;;;;;5040564;28;20124;-69
2022/04/19 15:18:59;;;;;;;4.93;2.20;;;;;;;;;;5039519;28;20049;-69
2022/04/19 15:21:30;;;;;;;4.32;2.03;;;;;;;;;;5040813;28;20112;-69
2022/04/19 15:23:56;;;;;;;4.53;2.27;;;;;;;;;;5041948;28;20136;-69
2022/04/19 15:26:23;;;;;;;3.10;1.90;;;;;;;;;;5042209;28;20129;-68
2022/04/19 15:28:55;;;;;;;6.97;2.35;;;;;;;;;;5045157;28;20137;-69
2022/04/19 15:31:22;;;;;;;6.50;2.53;;;;;;;;;;5041207;28;20128;-68
2022/04/19 15:33:49;;;;;;;7.78;2.20;;;;;;;;;;5040069;28;20404;-68
2022/04/19 15:36:16;;;;;;;3.42;2.10;;;;;;;;;;5041742;28;20128;-68
2022/04/19 15:38:43;;;;;;;3.53;2.13;;;;;;;;;;5041119;28;20056;-67
2022/04/19 15:41:10;;;;;;;5.80;1.92;;;;;;;;;;5042320;28;20048;-68
2022/04/19 15:43:36;;;;;;;2.95;2.10;;;;;;;;;;5040438;28;20080;-68
2022/04/19 15:46:03;;;;;;;5.97;2.65;;;;;;;;;;5044175;28;20160;-67
2022/04/19 15:48:31;;;;;;;5.82;2.15;;;;;;;;;;5042888;28;20136;-67
2022/04/19 15:50:57;;;;;;;2.70;2.15;;;;;;;;;;5043122;28;20564;-67